Time;durP1;ratioP1;P1;durP2;ratioP2;P2;SDS_P1;SDS_P2;PMS_P1;PMS_P2;Temp;Humidity;BMP_temperature;BMP_pressure;BME280_temperature;BME280_humidity;BME280_pressure;Samples;Min_cycle;Max_cycle;Signal;HPM_P1;HPM_P2
2022/06/01 20:30:33;;;;;;;15.27;9.13;;;21.50;96.90;;;;;;5093731;27;20155;-75
2022/06/01 20:32:59;;;;;;;15.05;10.68;;;21.20;96.80;;;;;;5080614;28;20078;-75
2022/06/01 20:35:25;;;;;;;15.95;10.18;;;21.10;96.60;;;;;;5077192;28;20056;-76
2022/06/01 20:37:51;;;;;;;11.40;8.50;;;21.00;96.60;;;;;;5080303;28;20028;-76
2022/06/01 20:40:19;;;;;;;15.40;10.18;;;20.90;97.00;;;;;;5074413;28;20036;-76
2022/06/01 20:42:46;;;;;;;15.52;9.95;;;21.00;96.60;;;;;;5075478;28;20109;-76
2022/06/01 20:45:14;;;;;;;18.13;9.85;;;21.10;96.40;;;;;;5077396;28;20032;-76
2022/06/01 20:47:41;;;;;;;15.05;9.52;;;21.00;96.30;;;;;;5072728;28;20029;-76
2022/06/01 20:50:08;;;;;;;13.07;9.05;;;21.00;96.40;;;;;;5079447;28;20043;-77
2022/06/01 20:52:34;;;;;;;15.32;9.98;;;21.00;96.40;;;;;;5072044;28;20033;-77
2022/06/01 20:54:59;;;;;;;11.70;8.90;;;21.00;96.30;;;;;;5079391;28;20051;-77
2022/06/01 20:57:25;;;;;;;14.00;9.07;;;20.90;96.40;;;;;;5076514;28;20163;-76
2022/06/01 20:59:51;;;;;;;12.80;8.50;;;21.00;96.40;;;;;;5070587;28;20032;-76
2022/06/01 21:02:16;;;;;;;13.32;9.30;;;21.00;96.40;;;;;;5076791;28;20583;-76
2022/06/01 21:04:43;;;;;;;13.73;8.80;;;20.90;96.40;;;;;;5079924;28;20040;-76
2022/06/01 21:07:09;;;;;;;13.85;8.93;;;20.90;96.50;;;;;;5077675;28;20510;-76
2022/06/01 21:09:35;;;;;;;12.40;9.00;;;20.80;96.70;;;;;;5079530;28;20082;-76
2022/06/01 21:12:19;;;;;;;12.73;8.90;;;20.70;96.70;;;;;;5067281;28;20112;-76
2022/06/01 21:14:50;;;;;;;13.50;8.27;;;20.70;96.70;;;;;;5078112;28;20047;-77
2022/06/01 21:17:17;;;;;;;13.57;7.88;;;20.80;96.70;;;;;;5064701;28;20538;-76
2022/06/01 21:19:43;;;;;;;14.05;9.38;;;20.80;96.70;;;;;;5078544;28;20455;-76
2022/06/01 21:22:10;;;;;;;14.90;10.20;;;20.70;96.70;;;;;;5070542;28;20467;-76
2022/06/01 21:24:38;;;;;;;13.48;8.55;;;20.70;96.60;;;;;;5076569;28;20171;-77
2022/06/01 21:27:05;;;;;;;15.05;8.73;;;20.60;96.80;;;;;;5076350;28;20534;-76
2022/06/01 21:29:31;;;;;;;12.90;9.48;;;20.40;97.10;;;;;;5077645;28;20052;-76
2022/06/01 21:31:57;;;;;;;18.35;9.75;;;20.40;97.20;;;;;;5077497;28;20032;-76
2022/06/01 21:34:23;;;;;;;17.52;9.55;;;20.40;97.40;;;;;;5078164;28;20032;-77
2022/06/01 21:36:49;;;;;;;15.77;9.32;;;20.20;97.70;;;;;;5075452;28;20021;-76
2022/06/01 21:39:14;;;;;;;13.65;9.93;;;20.20;97.50;;;;;;5070943;28;20123;-76
2022/06/01 21:41:40;;;;;;;16.55;9.75;;;20.30;97.40;;;;;;5056534;28;20108;-76
2022/06/01 21:44:08;;;;;;;14.68;9.75;;;20.30;97.20;;;;;;5061753;28;20093;-76
2022/06/01 21:46:34;;;;;;;12.02;8.98;;;20.20;97.30;;;;;;5064102;28;20025;-76
2022/06/01 21:49:00;;;;;;;13.93;9.63;;;20.20;97.40;;;;;;5065043;28;20024;-76
2022/06/01 21:51:25;;;;;;;15.35;9.93;;;20.10;97.60;;;;;;5064265;28;20036;-76
2022/06/01 21:53:51;;;;;;;14.30;10.20;;;20.10;97.70;;;;;;5066344;28;20055;-76
2022/06/01 21:56:17;;;;;;;12.23;9.10;;;19.90;97.90;;;;;;5064150;28;20036;-76
2022/06/01 21:58:42;;;;;;;17.05;9.82;;;19.90;98.00;;;;;;5062043;28;20048;-76
2022/06/01 22:01:08;;;;;;;12.98;9.88;;;19.90;98.00;;;;;;5063683;28;20032;-76
2022/06/01 22:03:37;;;;;;;15.63;10.18;;;19.80;98.20;;;;;;5061530;28;20996;-76
2022/06/01 22:06:04;;;;;;;14.43;11.05;;;19.60;98.70;;;;;;5061128;28;20576;-76
2022/06/01 22:08:31;;;;;;;17.05;11.25;;;19.60;98.50;;;;;;5063597;28;20083;-76
2022/06/01 22:13:42;;;;;;;13.25;10.18;;;19.50;98.80;;;;;;5068571;28;20047;-76
2022/06/01 22:16:08;;;;;;;16.13;9.75;;;19.50;98.90;;;;;;5067094;28;20376;-76
2022/06/01 22:18:35;;;;;;;12.75;10.70;;;19.50;98.80;;;;;;5062315;28;20040;-76
2022/06/01 22:21:01;;;;;;;17.17;9.43;;;19.60;98.80;;;;;;5061545;28;20103;-76
2022/06/01 22:23:27;;;;;;;12.82;9.43;;;19.60;98.80;;;;;;5059467;28;20191;-76
2022/06/01 22:25:53;;;;;;;15.32;9.85;;;19.40;98.80;;;;;;5065557;28;20032;-76
2022/06/01 22:28:19;;;;;;;12.43;9.88;;;19.50;98.90;;;;;;5065080;28;20393;-76
2022/06/01 22:30:45;;;;;;;15.20;9.88;;;19.40;98.90;;;;;;5067292;28;20032;-76
2022/06/01 22:33:10;;;;;;;14.73;9.30;;;19.30;99.00;;;;;;5060990;28;20978;-76
2022/06/01 22:38:25;;;;;;;18.67;10.13;;;19.30;98.90;;;;;;5063950;28;20035;-76
2022/06/01 22:40:52;;;;;;;15.18;9.45;;;19.40;99.10;;;;;;5065443;28;20598;-76
2022/06/01 22:43:18;;;;;;;12.05;9.98;;;19.30;99.10;;;;;;5064005;28;20475;-76
2022/06/01 22:45:45;;;;;;;13.73;9.57;;;19.30;99.10;;;;;;5060642;28;20028;-76
2022/06/01 22:48:14;;;;;;;14.43;9.93;;;19.40;99.00;;;;;;5065355;28;20032;-76
2022/06/01 22:50:49;;;;;;;13.95;10.20;;;19.40;99.20;;;;;;5068068;28;20036;-76
2022/06/01 22:53:27;;;;;;;15.48;9.55;;;19.40;99.10;;;;;;5057405;28;20379;-76
2022/06/01 22:55:54;;;;;;;10.68;9.40;;;19.50;99.00;;;;;;5066896;28;20028;-76
2022/06/01 22:58:20;;;;;;;14.48;9.93;;;19.50;99.00;;;;;;5064226;28;20040;-76
2022/06/01 23:00:46;;;;;;;14.57;10.15;;;19.40;99.00;;;;;;5060428;28;20029;-76
2022/06/01 23:03:12;;;;;;;13.43;10.32;;;19.40;99.20;;;;;;5067354;28;20025;-76
2022/06/01 23:05:38;;;;;;;13.75;9.48;;;19.40;99.20;;;;;;5067600;28;20032;-77
2022/06/01 23:08:04;;;;;;;13.75;10.38;;;19.50;99.20;;;;;;5063230;28;20501;-77
2022/06/01 23:10:29;;;;;;;14.70;10.27;;;19.50;99.30;;;;;;5067941;28;20029;-76
2022/06/01 23:12:57;;;;;;;12.98;10.00;;;19.50;99.30;;;;;;5064072;28;20036;-76
2022/06/01 23:15:23;;;;;;;12.23;9.80;;;19.50;99.30;;;;;;5068645;28;20043;-76
2022/06/01 23:17:48;;;;;;;15.23;9.55;;;19.40;99.50;;;;;;5063794;28;20035;-76
2022/06/01 23:20:22;;;;;;;21.20;10.65;;;19.40;99.50;;;;;;5068275;28;20040;-76
2022/06/01 23:22:48;;;;;;;;;;;19.40;99.60;;;;;;5068982;28;20479;-76
2022/06/01 23:25:14;;;;;;;15.55;10.82;;;19.40;99.70;;;;;;5070982;28;19915;-76
2022/06/01 23:27:40;;;;;;;14.75;11.23;;;19.30;99.80;;;;;;5068330;28;20056;-76
2022/06/01 23:30:06;;;;;;;15.25;10.23;;;19.50;99.60;;;;;;5069105;28;20422;-76
2022/06/01 23:32:41;;;;;;;14.43;10.40;;;19.40;99.70;;;;;;5068665;28;20418;-76
2022/06/01 23:35:18;;;;;;;17.38;11.40;;;19.30;99.80;;;;;;5065147;28;20032;-76
2022/06/01 23:37:47;;;;;;;12.10;9.52;;;19.30;99.80;;;;;;5066942;28;20529;-76
2022/06/01 23:40:16;;;;;;;12.52;9.65;;;19.20;99.90;;;;;;5071072;28;20024;-76
2022/06/01 23:43:26;;;;;;;16.67;11.00;;;19.20;99.90;;;;;;5062290;28;20382;-76
2022/06/01 23:46:19;;;;;;;13.40;10.45;;;19.20;99.90;;;;;;5068427;28;20032;-76
2022/06/01 23:49:08;;;;;;;15.57;10.93;;;19.10;99.90;;;;;;5068229;28;20457;-76
2022/06/01 23:52:01;;;;;;;12.10;9.43;;;19.10;99.90;;;;;;5067668;28;20090;-76
2022/06/01 23:54:32;;;;;;;14.20;9.45;;;19.00;99.90;;;;;;5067168;28;20414;-76
2022/06/01 23:57:05;;;;;;;13.40;9.70;;;18.90;99.90;;;;;;5062854;28;20028;-76
2022/06/01 23:59:59;;;;;;;14.45;9.65;;;18.80;99.90;;;;;;5069948;28;20040;-76
